Hovedside
METAR-TAF:

METAR-TAF

Lufthavner :

Røst lufthavn

Røst, Norge

breddegrad: 67-31N, lengdegrad: 012-06E, høyde over havet: 4 m

Gjeldene værobservasjon

Denne rapporten ble laget for 1 time og 14 minutter siden, klokken 19:20 UTC
Vind 11 kt fra Sør
Temperatur 5°C
Luftfuktighet 75%
Trykk 1009 hPa
Sikt 10 km eller mer
Få skyer i en høyde av 1800 ft, Bygeskyer.
Få skyer i en høyde av 2500 ft
regnbyger i nærheten

METAR: ENRS 141920Z 17011KT 9999 VCSH FEW018CB FEW025 05/01 Q1009

Tid: 21:34 (20:34 UTC)


TAF: fraværende

Værobservasjoner og værvarsel for over 4000 flyplasser (METAR- og TAF-rapporter).

Tilgjengelige stasjoner er representert av de røde og gule prikkene på kartet.

Hold musepekeren over prikken for å se navnet på stasjonen.

Klikk så for å se værobservasjoner og -varsler.

For å forandre kartet kan du klikke på den grønne knappen med svart kryss for å zoome inn, på den grønne knappen med strek for å zoome ut, eller på de grønne pilene for å se tilstøtende kart.


METAR-TAF: